sensor_id;sensor_type;location;lat;lon;timestamp;P1;durP1;ratioP1;P2;durP2;ratioP2
19030;SDS011;9648;51.130;13.978;2023-07-13T00:01:29;2.30;;;1.40;;
19030;SDS011;9648;51.130;13.978;2023-07-13T00:03:57;2.47;;;1.50;;
19030;SDS011;9648;51.130;13.978;2023-07-13T00:06:25;2.85;;;1.40;;
19030;SDS011;9648;51.130;13.978;2023-07-13T00:08:55;3.42;;;1.58;;
19030;SDS011;9648;51.130;13.978;2023-07-13T00:11:22;2.20;;;1.50;;
19030;SDS011;9648;51.130;13.978;2023-07-13T00:13:49;3.10;;;1.50;;
19030;SDS011;9648;51.130;13.978;2023-07-13T00:16:15;2.70;;;1.73;;
19030;SDS011;9648;51.130;13.978;2023-07-13T00:18:43;3.10;;;1.50;;
19030;SDS011;9648;51.130;13.978;2023-07-13T00:21:12;3.60;;;1.55;;
19030;SDS011;9648;51.130;13.978;2023-07-13T00:23:40;1.92;;;1.60;;
19030;SDS011;9648;51.130;13.978;2023-07-13T00:26:08;3.42;;;1.58;;
19030;SDS011;9648;51.130;13.978;2023-07-13T00:28:37;1.92;;;1.50;;
19030;SDS011;9648;51.130;13.978;2023-07-13T00:31:07;2.20;;;1.38;;
19030;SDS011;9648;51.130;13.978;2023-07-13T00:33:34;2.15;;;1.52;;
19030;SDS011;9648;51.130;13.978;2023-07-13T00:36:02;3.03;;;1.67;;
19030;SDS011;9648;51.130;13.978;2023-07-13T00:38:31;3.90;;;2.40;;
19030;SDS011;9648;51.130;13.978;2023-07-13T00:40:58;4.07;;;2.90;;
19030;SDS011;9648;51.130;13.978;2023-07-13T00:43:26;3.10;;;2.28;;
19030;SDS011;9648;51.130;13.978;2023-07-13T00:48:42;1.73;;;1.52;;
19030;SDS011;9648;51.130;13.978;2023-07-13T00:51:09;3.28;;;1.75;;
19030;SDS011;9648;51.130;13.978;2023-07-13T00:53:39;2.78;;;1.50;;
19030;SDS011;9648;51.130;13.978;2023-07-13T00:56:06;3.78;;;1.80;;
19030;SDS011;9648;51.130;13.978;2023-07-13T00:58:33;2.65;;;1.70;;
19030;SDS011;9648;51.130;13.978;2023-07-13T01:01:02;4.20;;;2.40;;
19030;SDS011;9648;51.130;13.978;2023-07-13T01:03:28;5.90;;;2.15;;
19030;SDS011;9648;51.130;13.978;2023-07-13T01:05:55;3.83;;;2.28;;
19030;SDS011;9648;51.130;13.978;2023-07-13T01:08:22;4.67;;;2.30;;
19030;SDS011;9648;51.130;13.978;2023-07-13T01:10:54;4.38;;;2.40;;
19030;SDS011;9648;51.130;13.978;2023-07-13T01:13:23;4.70;;;2.65;;
19030;SDS011;9648;51.130;13.978;2023-07-13T01:15:50;4.93;;;2.38;;
19030;SDS011;9648;51.130;13.978;2023-07-13T01:18:20;4.72;;;2.60;;
19030;SDS011;9648;51.130;13.978;2023-07-13T01:20:54;4.03;;;2.70;;
19030;SDS011;9648;51.130;13.978;2023-07-13T01:23:22;4.78;;;2.63;;
19030;SDS011;9648;51.130;13.978;2023-07-13T01:25:51;5.80;;;2.60;;
19030;SDS011;9648;51.130;13.978;2023-07-13T01:28:20;2.90;;;2.50;;
19030;SDS011;9648;51.130;13.978;2023-07-13T01:30:47;5.20;;;2.70;;
19030;SDS011;9648;51.130;13.978;2023-07-13T01:33:15;4.05;;;2.83;;
19030;SDS011;9648;51.130;13.978;2023-07-13T01:35:43;4.55;;;2.75;;
19030;SDS011;9648;51.130;13.978;2023-07-13T01:38:12;3.67;;;2.50;;
19030;SDS011;9648;51.130;13.978;2023-07-13T01:40:40;3.95;;;2.80;;
19030;SDS011;9648;51.130;13.978;2023-07-13T01:43:08;4.47;;;2.97;;
19030;SDS011;9648;51.130;13.978;2023-07-13T01:45:36;8.02;;;3.15;;
19030;SDS011;9648;51.130;13.978;2023-07-13T01:48:03;7.80;;;3.00;;
19030;SDS011;9648;51.130;13.978;2023-07-13T01:50:31;5.53;;;3.05;;
19030;SDS011;9648;51.130;13.978;2023-07-13T01:52:58;4.13;;;3.07;;
19030;SDS011;9648;51.130;13.978;2023-07-13T01:55:27;5.80;;;3.03;;
19030;SDS011;9648;51.130;13.978;2023-07-13T01:57:54;4.28;;;2.80;;
19030;SDS011;9648;51.130;13.978;2023-07-13T02:00:21;4.85;;;3.20;;
19030;SDS011;9648;51.130;13.978;2023-07-13T02:02:48;3.67;;;3.10;;
19030;SDS011;9648;51.130;13.978;2023-07-13T02:05:15;5.00;;;3.10;;
19030;SDS011;9648;51.130;13.978;2023-07-13T02:07:42;5.05;;;3.17;;
19030;SDS011;9648;51.130;13.978;2023-07-13T02:10:09;4.10;;;2.95;;
19030;SDS011;9648;51.130;13.978;2023-07-13T02:12:38;4.28;;;3.40;;
19030;SDS011;9648;51.130;13.978;2023-07-13T02:15:05;4.77;;;3.20;;
19030;SDS011;9648;51.130;13.978;2023-07-13T02:17:33;5.75;;;3.40;;
19030;SDS011;9648;51.130;13.978;2023-07-13T02:20:00;5.68;;;3.42;;
19030;SDS011;9648;51.130;13.978;2023-07-13T02:22:27;4.30;;;3.00;;
19030;SDS011;9648;51.130;13.978;2023-07-13T02:24:54;3.83;;;3.00;;
19030;SDS011;9648;51.130;13.978;2023-07-13T02:27:21;4.38;;;3.20;;
19030;SDS011;9648;51.130;13.978;2023-07-13T02:29:49;4.57;;;3.22;;
19030;SDS011;9648;51.130;13.978;2023-07-13T02:32:17;3.50;;;3.03;;
19030;SDS011;9648;51.130;13.978;2023-07-13T02:34:44;5.75;;;3.47;;
19030;SDS011;9648;51.130;13.978;2023-07-13T02:37:11;4.97;;;3.50;;
19030;SDS011;9648;51.130;13.978;2023-07-13T02:39:38;4.05;;;3.40;;
19030;SDS011;9648;51.130;13.978;2023-07-13T02:42:05;4.63;;;3.63;;
19030;SDS011;9648;51.130;13.978;2023-07-13T02:44:32;4.70;;;3.47;;
19030;SDS011;9648;51.130;13.978;2023-07-13T02:47:00;7.00;;;3.55;;
19030;SDS011;9648;51.130;13.978;2023-07-13T02:49:27;4.70;;;3.20;;
19030;SDS011;9648;51.130;13.978;2023-07-13T02:51:54;3.85;;;3.20;;
19030;SDS011;9648;51.130;13.978;2023-07-13T02:54:20;4.85;;;3.25;;
19030;SDS011;9648;51.130;13.978;2023-07-13T02:56:47;4.03;;;3.25;;
19030;SDS011;9648;51.130;13.978;2023-07-13T02:59:14;5.72;;;3.40;;
19030;SDS011;9648;51.130;13.978;2023-07-13T03:01:41;3.97;;;3.40;;
19030;SDS011;9648;51.130;13.978;2023-07-13T03:04:09;4.80;;;3.50;;
19030;SDS011;9648;51.130;13.978;2023-07-13T03:06:35;5.30;;;3.50;;
19030;SDS011;9648;51.130;13.978;2023-07-13T03:09:02;4.75;;;3.40;;
19030;SDS011;9648;51.130;13.978;2023-07-13T03:11:30;5.55;;;3.70;;
19030;SDS011;9648;51.130;13.978;2023-07-13T03:13:57;3.80;;;3.40;;
19030;SDS011;9648;51.130;13.978;2023-07-13T03:16:24;4.45;;;3.58;;
19030;SDS011;9648;51.130;13.978;2023-07-13T03:18:50;4.72;;;3.63;;
19030;SDS011;9648;51.130;13.978;2023-07-13T03:21:19;6.53;;;3.78;;
19030;SDS011;9648;51.130;13.978;2023-07-13T03:23:46;5.07;;;3.70;;
19030;SDS011;9648;51.130;13.978;2023-07-13T03:26:14;6.28;;;3.70;;
19030;SDS011;9648;51.130;13.978;2023-07-13T03:28:42;4.88;;;3.80;;
19030;SDS011;9648;51.130;13.978;2023-07-13T03:31:10;5.45;;;3.90;;
19030;SDS011;9648;51.130;13.978;2023-07-13T03:33:39;4.65;;;3.65;;
19030;SDS011;9648;51.130;13.978;2023-07-13T03:36:07;6.03;;;3.67;;
19030;SDS011;9648;51.130;13.978;2023-07-13T03:38:40;4.68;;;3.60;;
19030;SDS011;9648;51.130;13.978;2023-07-13T03:41:07;3.95;;;3.55;;
19030;SDS011;9648;51.130;13.978;2023-07-13T03:43:34;6.68;;;3.95;;
19030;SDS011;9648;51.130;13.978;2023-07-13T03:46:01;6.13;;;3.73;;
19030;SDS011;9648;51.130;13.978;2023-07-13T03:48:28;5.80;;;3.83;;
19030;SDS011;9648;51.130;13.978;2023-07-13T03:50:54;6.85;;;3.88;;
19030;SDS011;9648;51.130;13.978;2023-07-13T03:53:21;5.72;;;3.47;;
19030;SDS011;9648;51.130;13.978;2023-07-13T03:55:49;4.55;;;3.72;;
19030;SDS011;9648;51.130;13.978;2023-07-13T03:58:30;5.18;;;4.30;;
19030;SDS011;9648;51.130;13.978;2023-07-13T04:00:58;6.22;;;4.40;;
19030;SDS011;9648;51.130;13.978;2023-07-13T04:03:26;5.13;;;4.20;;
19030;SDS011;9648;51.130;13.978;2023-07-13T04:05:53;8.13;;;4.03;;
19030;SDS011;9648;51.130;13.978;2023-07-13T04:08:25;4.90;;;3.88;;
19030;SDS011;9648;51.130;13.978;2023-07-13T04:10:53;5.68;;;4.07;;
19030;SDS011;9648;51.130;13.978;2023-07-13T04:13:20;5.80;;;3.78;;
19030;SDS011;9648;51.130;13.978;2023-07-13T04:15:47;4.45;;;3.30;;
19030;SDS011;9648;51.130;13.978;2023-07-13T04:18:14;4.70;;;3.30;;
19030;SDS011;9648;51.130;13.978;2023-07-13T04:20:41;5.45;;;3.08;;
19030;SDS011;9648;51.130;13.978;2023-07-13T04:23:08;5.88;;;3.85;;
19030;SDS011;9648;51.130;13.978;2023-07-13T04:25:35;4.32;;;3.60;;
19030;SDS011;9648;51.130;13.978;2023-07-13T04:28:04;4.07;;;3.17;;
19030;SDS011;9648;51.130;13.978;2023-07-13T04:30:31;5.45;;;3.53;;
19030;SDS011;9648;51.130;13.978;2023-07-13T04:32:58;4.10;;;2.95;;
19030;SDS011;9648;51.130;13.978;2023-07-13T04:35:25;5.80;;;3.45;;
19030;SDS011;9648;51.130;13.978;2023-07-13T04:37:52;4.35;;;3.25;;
19030;SDS011;9648;51.130;13.978;2023-07-13T04:40:19;4.47;;;3.55;;
19030;SDS011;9648;51.130;13.978;2023-07-13T04:42:46;4.38;;;3.30;;
19030;SDS011;9648;51.130;13.978;2023-07-13T04:45:15;3.78;;;3.20;;
19030;SDS011;9648;51.130;13.978;2023-07-13T04:47:42;5.50;;;3.40;;
19030;SDS011;9648;51.130;13.978;2023-07-13T04:50:09;5.57;;;3.22;;
19030;SDS011;9648;51.130;13.978;2023-07-13T04:52:36;6.05;;;3.40;;
19030;SDS011;9648;51.130;13.978;2023-07-13T04:55:04;5.65;;;3.63;;
19030;SDS011;9648;51.130;13.978;2023-07-13T04:57:31;5.53;;;3.58;;
19030;SDS011;9648;51.130;13.978;2023-07-13T04:59:58;4.25;;;3.30;;
19030;SDS011;9648;51.130;13.978;2023-07-13T05:02:27;5.07;;;3.80;;
19030;SDS011;9648;51.130;13.978;2023-07-13T05:04:56;6.03;;;4.00;;
19030;SDS011;9648;51.130;13.978;2023-07-13T05:07:23;4.00;;;3.13;;
19030;SDS011;9648;51.130;13.978;2023-07-13T05:09:49;4.30;;;3.30;;
19030;SDS011;9648;51.130;13.978;2023-07-13T05:12:16;6.72;;;3.78;;
19030;SDS011;9648;51.130;13.978;2023-07-13T05:14:43;3.97;;;3.45;;
19030;SDS011;9648;51.130;13.978;2023-07-13T05:17:10;6.78;;;3.50;;
19030;SDS011;9648;51.130;13.978;2023-07-13T05:19:38;6.35;;;4.28;;
19030;SDS011;9648;51.130;13.978;2023-07-13T05:22:05;6.95;;;3.67;;
19030;SDS011;9648;51.130;13.978;2023-07-13T05:24:32;7.53;;;4.23;;
19030;SDS011;9648;51.130;13.978;2023-07-13T05:26:59;5.70;;;3.75;;
19030;SDS011;9648;51.130;13.978;2023-07-13T05:29:26;6.43;;;3.87;;
19030;SDS011;9648;51.130;13.978;2023-07-13T05:31:52;6.72;;;4.28;;
19030;SDS011;9648;51.130;13.978;2023-07-13T05:34:19;5.55;;;3.90;;
19030;SDS011;9648;51.130;13.978;2023-07-13T05:36:47;5.00;;;3.90;;
19030;SDS011;9648;51.130;13.978;2023-07-13T05:39:14;5.03;;;4.05;;
19030;SDS011;9648;51.130;13.978;2023-07-13T05:41:41;4.20;;;3.10;;
19030;SDS011;9648;51.130;13.978;2023-07-13T05:44:08;5.00;;;3.50;;
19030;SDS011;9648;51.130;13.978;2023-07-13T05:46:35;6.35;;;3.70;;
19030;SDS011;9648;51.130;13.978;2023-07-13T05:49:02;4.45;;;3.47;;
19030;SDS011;9648;51.130;13.978;2023-07-13T05:51:30;5.43;;;3.35;;
19030;SDS011;9648;51.130;13.978;2023-07-13T05:53:58;6.30;;;3.50;;
19030;SDS011;9648;51.130;13.978;2023-07-13T05:56:25;4.55;;;3.10;;
19030;SDS011;9648;51.130;13.978;2023-07-13T05:58:51;4.50;;;3.00;;
19030;SDS011;9648;51.130;13.978;2023-07-13T06:01:18;8.13;;;3.65;;
19030;SDS011;9648;51.130;13.978;2023-07-13T06:03:45;3.45;;;2.80;;
19030;SDS011;9648;51.130;13.978;2023-07-13T06:06:13;7.10;;;3.28;;
19030;SDS011;9648;51.130;13.978;2023-07-13T06:08:42;4.90;;;2.72;;
19030;SDS011;9648;51.130;13.978;2023-07-13T06:11:12;5.28;;;2.50;;
19030;SDS011;9648;51.130;13.978;2023-07-13T06:13:41;6.32;;;3.00;;
19030;SDS011;9648;51.130;13.978;2023-07-13T06:16:08;6.82;;;3.05;;
19030;SDS011;9648;51.130;13.978;2023-07-13T06:18:35;6.47;;;2.90;;
19030;SDS011;9648;51.130;13.978;2023-07-13T06:21:05;4.50;;;2.83;;
19030;SDS011;9648;51.130;13.978;2023-07-13T06:23:33;4.47;;;2.70;;
19030;SDS011;9648;51.130;13.978;2023-07-13T06:26:00;3.03;;;2.50;;
19030;SDS011;9648;51.130;13.978;2023-07-13T06:28:29;3.63;;;2.50;;
19030;SDS011;9648;51.130;13.978;2023-07-13T06:30:57;4.55;;;2.40;;
19030;SDS011;9648;51.130;13.978;2023-07-13T06:33:24;4.75;;;2.30;;
19030;SDS011;9648;51.130;13.978;2023-07-13T06:35:51;3.90;;;2.33;;
19030;SDS011;9648;51.130;13.978;2023-07-13T06:38:18;3.92;;;2.10;;
19030;SDS011;9648;51.130;13.978;2023-07-13T06:40:44;4.18;;;2.00;;
19030;SDS011;9648;51.130;13.978;2023-07-13T06:43:11;3.25;;;2.20;;
19030;SDS011;9648;51.130;13.978;2023-07-13T06:45:42;2.70;;;1.85;;
19030;SDS011;9648;51.130;13.978;2023-07-13T06:48:10;5.27;;;2.20;;
19030;SDS011;9648;51.130;13.978;2023-07-13T06:50:37;3.90;;;2.10;;
19030;SDS011;9648;51.130;13.978;2023-07-13T06:53:04;3.08;;;2.03;;
19030;SDS011;9648;51.130;13.978;2023-07-13T06:55:31;3.75;;;2.13;;
19030;SDS011;9648;51.130;13.978;2023-07-13T06:57:57;3.05;;;1.90;;
19030;SDS011;9648;51.130;13.978;2023-07-13T07:00:24;5.40;;;2.10;;
19030;SDS011;9648;51.130;13.978;2023-07-13T07:02:52;3.15;;;2.00;;
19030;SDS011;9648;51.130;13.978;2023-07-13T07:05:19;4.65;;;2.15;;
19030;SDS011;9648;51.130;13.978;2023-07-13T07:07:47;3.83;;;1.90;;
19030;SDS011;9648;51.130;13.978;2023-07-13T07:10:13;3.63;;;2.15;;
19030;SDS011;9648;51.130;13.978;2023-07-13T07:12:40;2.72;;;1.88;;
19030;SDS011;9648;51.130;13.978;2023-07-13T07:15:07;6.32;;;2.15;;
19030;SDS011;9648;51.130;13.978;2023-07-13T07:17:35;3.45;;;1.90;;
19030;SDS011;9648;51.130;13.978;2023-07-13T07:20:03;4.03;;;1.90;;
19030;SDS011;9648;51.130;13.978;2023-07-13T07:22:31;3.13;;;1.70;;
19030;SDS011;9648;51.130;13.978;2023-07-13T07:24:58;5.13;;;2.10;;
19030;SDS011;9648;51.130;13.978;2023-07-13T07:27:25;3.70;;;2.00;;
19030;SDS011;9648;51.130;13.978;2023-07-13T07:29:51;4.10;;;1.98;;
19030;SDS011;9648;51.130;13.978;2023-07-13T07:32:18;4.38;;;1.90;;
19030;SDS011;9648;51.130;13.978;2023-07-13T07:34:45;3.63;;;1.90;;
19030;SDS011;9648;51.130;13.978;2023-07-13T07:37:14;3.25;;;1.88;;
19030;SDS011;9648;51.130;13.978;2023-07-13T07:39:42;5.38;;;2.30;;
19030;SDS011;9648;51.130;13.978;2023-07-13T07:42:10;8.23;;;2.20;;
19030;SDS011;9648;51.130;13.978;2023-07-13T07:44:37;3.47;;;1.70;;
19030;SDS011;9648;51.130;13.978;2023-07-13T07:47:05;4.10;;;2.00;;
19030;SDS011;9648;51.130;13.978;2023-07-13T07:49:32;4.00;;;1.83;;
19030;SDS011;9648;51.130;13.978;2023-07-13T07:51:59;3.13;;;1.67;;
19030;SDS011;9648;51.130;13.978;2023-07-13T07:54:27;3.40;;;1.95;;
19030;SDS011;9648;51.130;13.978;2023-07-13T07:56:54;3.10;;;1.60;;
19030;SDS011;9648;51.130;13.978;2023-07-13T07:59:21;4.07;;;1.80;;
19030;SDS011;9648;51.130;13.978;2023-07-13T08:01:47;3.88;;;1.63;;
19030;SDS011;9648;51.130;13.978;2023-07-13T08:04:15;3.63;;;1.35;;
19030;SDS011;9648;51.130;13.978;2023-07-13T08:06:42;2.78;;;1.40;;
19030;SDS011;9648;51.130;13.978;2023-07-13T08:09:08;2.23;;;1.20;;
19030;SDS011;9648;51.130;13.978;2023-07-13T08:11:36;3.55;;;1.42;;
19030;SDS011;9648;51.130;13.978;2023-07-13T08:14:03;3.20;;;1.50;;
19030;SDS011;9648;51.130;13.978;2023-07-13T08:16:30;2.63;;;1.30;;
19030;SDS011;9648;51.130;13.978;2023-07-13T08:18:57;2.07;;;1.40;;
19030;SDS011;9648;51.130;13.978;2023-07-13T08:21:24;2.25;;;1.33;;
19030;SDS011;9648;51.130;13.978;2023-07-13T08:23:51;4.75;;;1.52;;
19030;SDS011;9648;51.130;13.978;2023-07-13T08:26:18;2.20;;;1.30;;
19030;SDS011;9648;51.130;13.978;2023-07-13T08:28:46;3.10;;;1.45;;
19030;SDS011;9648;51.130;13.978;2023-07-13T08:31:13;3.35;;;1.35;;
19030;SDS011;9648;51.130;13.978;2023-07-13T08:33:40;3.40;;;1.42;;
19030;SDS011;9648;51.130;13.978;2023-07-13T08:36:07;2.60;;;1.40;;
19030;SDS011;9648;51.130;13.978;2023-07-13T08:38:34;3.63;;;1.50;;
19030;SDS011;9648;51.130;13.978;2023-07-13T08:41:02;2.35;;;1.20;;
19030;SDS011;9648;51.130;13.978;2023-07-13T08:43:37;2.28;;;1.23;;
19030;SDS011;9648;51.130;13.978;2023-07-13T08:46:07;3.63;;;1.40;;
19030;SDS011;9648;51.130;13.978;2023-07-13T08:48:38;4.22;;;1.50;;
19030;SDS011;9648;51.130;13.978;2023-07-13T08:51:11;3.70;;;1.80;;
19030;SDS011;9648;51.130;13.978;2023-07-13T08:53:50;4.60;;;1.50;;
19030;SDS011;9648;51.130;13.978;2023-07-13T08:56:24;2.53;;;1.50;;
19030;SDS011;9648;51.130;13.978;2023-07-13T08:58:55;3.83;;;1.48;;
19030;SDS011;9648;51.130;13.978;2023-07-13T09:01:27;5.20;;;1.90;;
19030;SDS011;9648;51.130;13.978;2023-07-13T09:03:59;4.10;;;1.50;;
19030;SDS011;9648;51.130;13.978;2023-07-13T09:06:34;4.05;;;1.60;;
19030;SDS011;9648;51.130;13.978;2023-07-13T09:09:10;5.03;;;1.77;;
19030;SDS011;9648;51.130;13.978;2023-07-13T09:11:47;4.90;;;1.80;;
19030;SDS011;9648;51.130;13.978;2023-07-13T09:14:31;3.92;;;1.60;;
19030;SDS011;9648;51.130;13.978;2023-07-13T09:17:08;3.43;;;1.70;;
19030;SDS011;9648;51.130;13.978;2023-07-13T09:19:39;4.50;;;1.60;;
19030;SDS011;9648;51.130;13.978;2023-07-13T09:22:09;3.80;;;1.70;;
19030;SDS011;9648;51.130;13.978;2023-07-13T09:24:44;2.92;;;1.60;;
19030;SDS011;9648;51.130;13.978;2023-07-13T09:27:22;3.53;;;1.42;;
19030;SDS011;9648;51.130;13.978;2023-07-13T09:29:54;4.82;;;1.52;;
19030;SDS011;9648;51.130;13.978;2023-07-13T09:32:29;2.80;;;1.40;;
19030;SDS011;9648;51.130;13.978;2023-07-13T09:34:56;3.83;;;1.30;;
19030;SDS011;9648;51.130;13.978;2023-07-13T09:37:28;4.63;;;1.55;;
19030;SDS011;9648;51.130;13.978;2023-07-13T09:39:58;3.13;;;1.40;;
19030;SDS011;9648;51.130;13.978;2023-07-13T09:42:29;4.47;;;1.70;;
19030;SDS011;9648;51.130;13.978;2023-07-13T09:44:59;3.03;;;1.40;;
19030;SDS011;9648;51.130;13.978;2023-07-13T09:47:30;4.15;;;1.38;;
19030;SDS011;9648;51.130;13.978;2023-07-13T09:50:00;3.17;;;1.30;;
19030;SDS011;9648;51.130;13.978;2023-07-13T09:52:29;3.10;;;1.30;;
19030;SDS011;9648;51.130;13.978;2023-07-13T09:55:11;5.68;;;1.60;;
19030;SDS011;9648;51.130;13.978;2023-07-13T09:57:50;5.32;;;1.75;;
19030;SDS011;9648;51.130;13.978;2023-07-13T10:00:22;5.90;;;1.65;;
19030;SDS011;9648;51.130;13.978;2023-07-13T10:02:59;6.47;;;1.58;;
19030;SDS011;9648;51.130;13.978;2023-07-13T10:05:28;4.93;;;1.48;;
19030;SDS011;9648;51.130;13.978;2023-07-13T10:08:03;3.07;;;1.50;;
19030;SDS011;9648;51.130;13.978;2023-07-13T10:10:32;4.83;;;1.50;;
19030;SDS011;9648;51.130;13.978;2023-07-13T10:13:01;3.20;;;1.55;;
19030;SDS011;9648;51.130;13.978;2023-07-13T10:15:30;3.30;;;1.40;;
19030;SDS011;9648;51.130;13.978;2023-07-13T10:18:00;3.47;;;1.77;;
19030;SDS011;9648;51.130;13.978;2023-07-13T10:20:27;3.53;;;1.47;;
19030;SDS011;9648;51.130;13.978;2023-07-13T10:22:54;5.38;;;1.73;;
19030;SDS011;9648;51.130;13.978;2023-07-13T10:25:26;6.50;;;1.60;;
19030;SDS011;9648;51.130;13.978;2023-07-13T10:27:58;4.57;;;1.70;;
19030;SDS011;9648;51.130;13.978;2023-07-13T10:30:31;2.45;;;1.35;;
19030;SDS011;9648;51.130;13.978;2023-07-13T10:33:03;3.72;;;1.60;;
19030;SDS011;9648;51.130;13.978;2023-07-13T10:35:37;3.95;;;1.42;;
19030;SDS011;9648;51.130;13.978;2023-07-13T10:38:10;3.25;;;1.45;;
19030;SDS011;9648;51.130;13.978;2023-07-13T10:40:39;3.10;;;1.15;;
19030;SDS011;9648;51.130;13.978;2023-07-13T10:43:09;2.63;;;1.20;;
19030;SDS011;9648;51.130;13.978;2023-07-13T10:45:40;5.13;;;1.48;;
19030;SDS011;9648;51.130;13.978;2023-07-13T10:48:09;2.53;;;1.20;;
19030;SDS011;9648;51.130;13.978;2023-07-13T10:50:40;2.33;;;1.25;;
19030;SDS011;9648;51.130;13.978;2023-07-13T10:53:18;3.72;;;1.27;;
19030;SDS011;9648;51.130;13.978;2023-07-13T10:55:56;3.67;;;1.30;;
19030;SDS011;9648;51.130;13.978;2023-07-13T10:58:28;3.63;;;1.35;;
19030;SDS011;9648;51.130;13.978;2023-07-13T11:01:02;4.15;;;1.80;;
19030;SDS011;9648;51.130;13.978;2023-07-13T11:03:35;8.10;;;1.65;;
19030;SDS011;9648;51.130;13.978;2023-07-13T11:06:05;4.03;;;1.48;;
19030;SDS011;9648;51.130;13.978;2023-07-13T11:08:37;4.93;;;1.40;;
19030;SDS011;9648;51.130;13.978;2023-07-13T11:11:32;2.28;;;1.25;;
19030;SDS011;9648;51.130;13.978;2023-07-13T11:14:04;5.03;;;1.37;;
19030;SDS011;9648;51.130;13.978;2023-07-13T11:16:51;3.30;;;1.30;;
19030;SDS011;9648;51.130;13.978;2023-07-13T11:19:27;3.38;;;1.30;;
19030;SDS011;9648;51.130;13.978;2023-07-13T11:22:13;3.58;;;1.10;;
19030;SDS011;9648;51.130;13.978;2023-07-13T11:24:49;4.17;;;1.27;;
19030;SDS011;9648;51.130;13.978;2023-07-13T11:27:21;2.72;;;1.00;;
19030;SDS011;9648;51.130;13.978;2023-07-13T11:29:53;3.10;;;1.30;;
19030;SDS011;9648;51.130;13.978;2023-07-13T11:32:34;4.50;;;1.30;;
19030;SDS011;9648;51.130;13.978;2023-07-13T11:35:03;3.00;;;1.48;;
19030;SDS011;9648;51.130;13.978;2023-07-13T11:37:30;3.75;;;1.10;;
19030;SDS011;9648;51.130;13.978;2023-07-13T11:39:58;7.38;;;1.45;;
19030;SDS011;9648;51.130;13.978;2023-07-13T11:42:25;5.30;;;1.30;;
19030;SDS011;9648;51.130;13.978;2023-07-13T11:44:52;3.70;;;1.20;;
19030;SDS011;9648;51.130;13.978;2023-07-13T11:47:22;2.63;;;1.17;;
19030;SDS011;9648;51.130;13.978;2023-07-13T11:49:52;5.32;;;1.35;;
19030;SDS011;9648;51.130;13.978;2023-07-13T11:52:23;4.57;;;1.25;;
19030;SDS011;9648;51.130;13.978;2023-07-13T11:54:56;4.77;;;1.10;;
19030;SDS011;9648;51.130;13.978;2023-07-13T11:57:27;3.72;;;1.08;;
19030;SDS011;9648;51.130;13.978;2023-07-13T11:59:58;8.52;;;1.38;;
19030;SDS011;9648;51.130;13.978;2023-07-13T12:02:28;3.17;;;1.10;;
19030;SDS011;9648;51.130;13.978;2023-07-13T12:04:57;4.05;;;1.27;;
19030;SDS011;9648;51.130;13.978;2023-07-13T12:07:28;5.78;;;1.63;;
19030;SDS011;9648;51.130;13.978;2023-07-13T12:09:59;4.47;;;1.50;;
19030;SDS011;9648;51.130;13.978;2023-07-13T12:12:27;3.13;;;1.55;;
19030;SDS011;9648;51.130;13.978;2023-07-13T12:14:55;2.97;;;1.42;;
19030;SDS011;9648;51.130;13.978;2023-07-13T12:17:24;4.65;;;1.67;;
19030;SDS011;9648;51.130;13.978;2023-07-13T12:19:51;4.18;;;1.60;;
19030;SDS011;9648;51.130;13.978;2023-07-13T12:22:19;3.83;;;1.52;;
19030;SDS011;9648;51.130;13.978;2023-07-13T12:24:49;2.25;;;1.50;;
19030;SDS011;9648;51.130;13.978;2023-07-13T12:27:20;5.37;;;1.60;;
19030;SDS011;9648;51.130;13.978;2023-07-13T12:29:49;3.47;;;1.50;;
19030;SDS011;9648;51.130;13.978;2023-07-13T12:32:18;3.63;;;1.40;;
19030;SDS011;9648;51.130;13.978;2023-07-13T12:34:52;5.45;;;1.48;;
19030;SDS011;9648;51.130;13.978;2023-07-13T12:37:21;3.88;;;1.20;;
19030;SDS011;9648;51.130;13.978;2023-07-13T12:39:49;4.30;;;1.20;;
19030;SDS011;9648;51.130;13.978;2023-07-13T12:42:19;4.80;;;1.42;;
19030;SDS011;9648;51.130;13.978;2023-07-13T12:44:52;5.35;;;1.30;;
19030;SDS011;9648;51.130;13.978;2023-07-13T12:47:21;4.35;;;1.20;;
19030;SDS011;9648;51.130;13.978;2023-07-13T12:49:50;3.95;;;1.30;;
19030;SDS011;9648;51.130;13.978;2023-07-13T12:52:21;3.00;;;1.10;;
19030;SDS011;9648;51.130;13.978;2023-07-13T12:54:54;4.07;;;1.10;;
19030;SDS011;9648;51.130;13.978;2023-07-13T12:57:22;2.87;;;1.03;;
19030;SDS011;9648;51.130;13.978;2023-07-13T12:59:52;2.47;;;1.10;;
19030;SDS011;9648;51.130;13.978;2023-07-13T13:02:21;3.40;;;1.30;;
19030;SDS011;9648;51.130;13.978;2023-07-13T13:04:54;2.95;;;1.10;;
19030;SDS011;9648;51.130;13.978;2023-07-13T13:07:22;2.95;;;1.20;;
19030;SDS011;9648;51.130;13.978;2023-07-13T13:09:50;4.20;;;1.20;;
19030;SDS011;9648;51.130;13.978;2023-07-13T13:12:20;5.15;;;1.35;;
19030;SDS011;9648;51.130;13.978;2023-07-13T13:14:49;8.45;;;1.65;;
19030;SDS011;9648;51.130;13.978;2023-07-13T13:17:18;13.32;;;2.28;;
19030;SDS011;9648;51.130;13.978;2023-07-13T13:19:49;4.20;;;1.20;;
19030;SDS011;9648;51.130;13.978;2023-07-13T13:22:18;4.40;;;1.30;;
19030;SDS011;9648;51.130;13.978;2023-07-13T13:24:45;2.42;;;1.10;;
19030;SDS011;9648;51.130;13.978;2023-07-13T13:27:14;3.78;;;1.13;;
19030;SDS011;9648;51.130;13.978;2023-07-13T13:29:45;2.72;;;1.17;;
19030;SDS011;9648;51.130;13.978;2023-07-13T13:32:14;3.17;;;1.30;;
19030;SDS011;9648;51.130;13.978;2023-07-13T13:34:41;3.73;;;1.40;;
19030;SDS011;9648;51.130;13.978;2023-07-13T13:37:11;5.85;;;1.20;;
19030;SDS011;9648;51.130;13.978;2023-07-13T13:39:43;3.20;;;1.02;;
19030;SDS011;9648;51.130;13.978;2023-07-13T13:42:11;3.20;;;1.10;;
19030;SDS011;9648;51.130;13.978;2023-07-13T13:44:37;3.33;;;1.20;;
19030;SDS011;9648;51.130;13.978;2023-07-13T13:47:09;4.82;;;1.10;;
19030;SDS011;9648;51.130;13.978;2023-07-13T13:49:54;4.47;;;1.20;;
19030;SDS011;9648;51.130;13.978;2023-07-13T13:52:20;4.03;;;1.05;;
19030;SDS011;9648;51.130;13.978;2023-07-13T13:54:47;2.80;;;1.10;;
19030;SDS011;9648;51.130;13.978;2023-07-13T13:57:14;3.22;;;1.08;;
19030;SDS011;9648;51.130;13.978;2023-07-13T13:59:41;3.70;;;1.30;;
19030;SDS011;9648;51.130;13.978;2023-07-13T14:02:20;2.55;;;1.10;;
19030;SDS011;9648;51.130;13.978;2023-07-13T14:04:50;5.80;;;1.15;;
19030;SDS011;9648;51.130;13.978;2023-07-13T14:07:21;4.80;;;1.25;;
19030;SDS011;9648;51.130;13.978;2023-07-13T14:09:48;3.28;;;1.50;;
19030;SDS011;9648;51.130;13.978;2023-07-13T14:12:15;8.87;;;1.50;;
19030;SDS011;9648;51.130;13.978;2023-07-13T14:14:42;4.78;;;1.50;;
19030;SDS011;9648;51.130;13.978;2023-07-13T14:17:12;3.60;;;1.30;;
19030;SDS011;9648;51.130;13.978;2023-07-13T14:19:48;4.00;;;1.20;;
19030;SDS011;9648;51.130;13.978;2023-07-13T14:22:21;2.85;;;1.02;;
19030;SDS011;9648;51.130;13.978;2023-07-13T14:24:49;2.97;;;1.33;;
19030;SDS011;9648;51.130;13.978;2023-07-13T14:27:16;2.70;;;1.50;;
19030;SDS011;9648;51.130;13.978;2023-07-13T14:29:43;3.25;;;1.17;;
19030;SDS011;9648;51.130;13.978;2023-07-13T14:32:10;2.17;;;1.10;;
19030;SDS011;9648;51.130;13.978;2023-07-13T14:34:39;6.10;;;1.00;;
19030;SDS011;9648;51.130;13.978;2023-07-13T14:37:08;3.38;;;1.10;;
19030;SDS011;9648;51.130;13.978;2023-07-13T14:39:39;2.83;;;1.15;;
19030;SDS011;9648;51.130;13.978;2023-07-13T14:42:08;1.88;;;1.00;;
19030;SDS011;9648;51.130;13.978;2023-07-13T14:44:35;4.37;;;1.30;;
19030;SDS011;9648;51.130;13.978;2023-07-13T14:47:04;2.80;;;1.15;;
19030;SDS011;9648;51.130;13.978;2023-07-13T14:49:33;6.10;;;1.30;;
19030;SDS011;9648;51.130;13.978;2023-07-13T14:52:08;2.90;;;1.20;;
19030;SDS011;9648;51.130;13.978;2023-07-13T14:54:37;3.78;;;1.30;;
19030;SDS011;9648;51.130;13.978;2023-07-13T14:57:08;2.92;;;1.10;;
19030;SDS011;9648;51.130;13.978;2023-07-13T14:59:36;2.27;;;1.17;;
19030;SDS011;9648;51.130;13.978;2023-07-13T15:02:08;2.40;;;1.10;;